sensor_id;sensor_type;location;lat;lon;timestamp;P1;durP1;ratioP1;P2;durP2;ratioP2
12122;SDS011;6125;59.628;17.852;2023-07-20T00:02:03;1.40;;;1.20;;
12122;SDS011;6125;59.628;17.852;2023-07-20T00:04:32;3.57;;;1.37;;
12122;SDS011;6125;59.628;17.852;2023-07-20T00:06:59;1.40;;;1.10;;
12122;SDS011;6125;59.628;17.852;2023-07-20T00:09:26;3.90;;;1.50;;
12122;SDS011;6125;59.628;17.852;2023-07-20T00:11:55;4.77;;;1.23;;
12122;SDS011;6125;59.628;17.852;2023-07-20T00:14:25;2.27;;;1.40;;
12122;SDS011;6125;59.628;17.852;2023-07-20T00:16:52;4.33;;;1.23;;
12122;SDS011;6125;59.628;17.852;2023-07-20T00:19:21;2.57;;;1.23;;
12122;SDS011;6125;59.628;17.852;2023-07-20T00:21:49;3.47;;;1.00;;
12122;SDS011;6125;59.628;17.852;2023-07-20T00:24:16;2.20;;;1.27;;
12122;SDS011;6125;59.628;17.852;2023-07-20T00:26:44;3.10;;;1.20;;
12122;SDS011;6125;59.628;17.852;2023-07-20T00:29:12;2.00;;;1.10;;
12122;SDS011;6125;59.628;17.852;2023-07-20T00:31:39;3.13;;;1.63;;
12122;SDS011;6125;59.628;17.852;2023-07-20T00:34:08;2.60;;;1.10;;
12122;SDS011;6125;59.628;17.852;2023-07-20T00:36:35;2.33;;;1.10;;
12122;SDS011;6125;59.628;17.852;2023-07-20T00:39:02;4.57;;;1.30;;
12122;SDS011;6125;59.628;17.852;2023-07-20T00:41:29;3.73;;;1.40;;
12122;SDS011;6125;59.628;17.852;2023-07-20T00:43:57;3.13;;;1.17;;
12122;SDS011;6125;59.628;17.852;2023-07-20T00:46:26;2.93;;;1.23;;
12122;SDS011;6125;59.628;17.852;2023-07-20T00:48:53;3.53;;;1.23;;
12122;SDS011;6125;59.628;17.852;2023-07-20T00:51:21;1.37;;;0.97;;
12122;SDS011;6125;59.628;17.852;2023-07-20T00:53:50;2.40;;;1.10;;
12122;SDS011;6125;59.628;17.852;2023-07-20T00:56:17;3.10;;;1.17;;
12122;SDS011;6125;59.628;17.852;2023-07-20T00:58:45;2.67;;;1.00;;
12122;SDS011;6125;59.628;17.852;2023-07-20T01:01:12;2.70;;;1.20;;
12122;SDS011;6125;59.628;17.852;2023-07-20T01:03:41;1.10;;;0.97;;
12122;SDS011;6125;59.628;17.852;2023-07-20T01:06:10;5.77;;;1.33;;
12122;SDS011;6125;59.628;17.852;2023-07-20T01:08:45;3.53;;;1.37;;
12122;SDS011;6125;59.628;17.852;2023-07-20T01:11:22;2.00;;;1.10;;
12122;SDS011;6125;59.628;17.852;2023-07-20T01:13:55;1.70;;;1.17;;
12122;SDS011;6125;59.628;17.852;2023-07-20T01:16:22;2.57;;;1.07;;
12122;SDS011;6125;59.628;17.852;2023-07-20T01:18:51;3.30;;;1.20;;
12122;SDS011;6125;59.628;17.852;2023-07-20T01:21:21;2.27;;;1.43;;
12122;SDS011;6125;59.628;17.852;2023-07-20T01:27:18;5.27;;;1.60;;
12122;SDS011;6125;59.628;17.852;2023-07-20T01:32:53;1.77;;;1.10;;
12122;SDS011;6125;59.628;17.852;2023-07-20T01:35:22;1.50;;;1.20;;
12122;SDS011;6125;59.628;17.852;2023-07-20T01:37:52;1.70;;;1.17;;
12122;SDS011;6125;59.628;17.852;2023-07-20T01:40:21;4.43;;;1.37;;
12122;SDS011;6125;59.628;17.852;2023-07-20T01:42:50;3.37;;;1.20;;
12122;SDS011;6125;59.628;17.852;2023-07-20T01:45:18;2.93;;;1.37;;
12122;SDS011;6125;59.628;17.852;2023-07-20T01:47:45;4.77;;;1.90;;
12122;SDS011;6125;59.628;17.852;2023-07-20T01:50:14;5.60;;;1.77;;
12122;SDS011;6125;59.628;17.852;2023-07-20T01:52:41;2.00;;;1.33;;
12122;SDS011;6125;59.628;17.852;2023-07-20T01:55:08;2.90;;;1.10;;
12122;SDS011;6125;59.628;17.852;2023-07-20T01:57:35;3.53;;;1.50;;
12122;SDS011;6125;59.628;17.852;2023-07-20T02:00:03;3.30;;;1.10;;
12122;SDS011;6125;59.628;17.852;2023-07-20T02:02:32;4.27;;;1.00;;
12122;SDS011;6125;59.628;17.852;2023-07-20T02:04:59;4.73;;;1.33;;
12122;SDS011;6125;59.628;17.852;2023-07-20T02:07:27;6.00;;;1.50;;
12122;SDS011;6125;59.628;17.852;2023-07-20T02:09:54;4.00;;;1.10;;
12122;SDS011;6125;59.628;17.852;2023-07-20T02:12:21;2.53;;;1.23;;
12122;SDS011;6125;59.628;17.852;2023-07-20T02:14:48;5.97;;;1.60;;
12122;SDS011;6125;59.628;17.852;2023-07-20T02:17:16;5.00;;;1.37;;
12122;SDS011;6125;59.628;17.852;2023-07-20T02:19:43;4.43;;;1.60;;
12122;SDS011;6125;59.628;17.852;2023-07-20T02:22:10;3.10;;;1.30;;
12122;SDS011;6125;59.628;17.852;2023-07-20T02:24:39;3.30;;;1.40;;
12122;SDS011;6125;59.628;17.852;2023-07-20T02:27:06;9.93;;;1.63;;
12122;SDS011;6125;59.628;17.852;2023-07-20T02:29:33;3.43;;;1.40;;
12122;SDS011;6125;59.628;17.852;2023-07-20T02:32:01;5.50;;;1.77;;
12122;SDS011;6125;59.628;17.852;2023-07-20T02:34:28;5.33;;;1.60;;
12122;SDS011;6125;59.628;17.852;2023-07-20T02:36:55;3.80;;;1.50;;
12122;SDS011;6125;59.628;17.852;2023-07-20T02:39:22;2.57;;;1.50;;
12122;SDS011;6125;59.628;17.852;2023-07-20T02:41:51;4.90;;;1.60;;
12122;SDS011;6125;59.628;17.852;2023-07-20T02:44:19;5.07;;;1.77;;
12122;SDS011;6125;59.628;17.852;2023-07-20T02:46:46;3.23;;;1.73;;
12122;SDS011;6125;59.628;17.852;2023-07-20T02:49:14;4.47;;;1.97;;
12122;SDS011;6125;59.628;17.852;2023-07-20T02:51:41;4.80;;;1.53;;
12122;SDS011;6125;59.628;17.852;2023-07-20T02:54:09;5.37;;;1.40;;
12122;SDS011;6125;59.628;17.852;2023-07-20T02:56:36;2.37;;;1.47;;
12122;SDS011;6125;59.628;17.852;2023-07-20T02:59:04;4.43;;;1.63;;
12122;SDS011;6125;59.628;17.852;2023-07-20T03:01:31;4.80;;;1.70;;
12122;SDS011;6125;59.628;17.852;2023-07-20T03:03:59;10.33;;;2.07;;
12122;SDS011;6125;59.628;17.852;2023-07-20T03:06:26;3.23;;;1.50;;
12122;SDS011;6125;59.628;17.852;2023-07-20T03:08:53;4.87;;;1.80;;
12122;SDS011;6125;59.628;17.852;2023-07-20T03:11:20;4.60;;;1.70;;
12122;SDS011;6125;59.628;17.852;2023-07-20T03:13:47;5.67;;;1.60;;
12122;SDS011;6125;59.628;17.852;2023-07-20T03:16:17;7.10;;;2.03;;
12122;SDS011;6125;59.628;17.852;2023-07-20T03:18:45;6.77;;;1.40;;
12122;SDS011;6125;59.628;17.852;2023-07-20T03:21:12;3.63;;;1.70;;
12122;SDS011;6125;59.628;17.852;2023-07-20T03:23:40;4.70;;;1.67;;
12122;SDS011;6125;59.628;17.852;2023-07-20T03:26:07;8.00;;;1.73;;
12122;SDS011;6125;59.628;17.852;2023-07-20T03:28:34;2.27;;;1.53;;
12122;SDS011;6125;59.628;17.852;2023-07-20T03:31:01;6.47;;;1.70;;
12122;SDS011;6125;59.628;17.852;2023-07-20T03:33:30;4.53;;;1.77;;
12122;SDS011;6125;59.628;17.852;2023-07-20T03:35:58;7.43;;;1.70;;
12122;SDS011;6125;59.628;17.852;2023-07-20T03:38:26;3.23;;;1.70;;
12122;SDS011;6125;59.628;17.852;2023-07-20T03:40:53;6.90;;;1.80;;
12122;SDS011;6125;59.628;17.852;2023-07-20T03:43:21;6.53;;;2.00;;
12122;SDS011;6125;59.628;17.852;2023-07-20T03:45:49;7.40;;;2.27;;
12122;SDS011;6125;59.628;17.852;2023-07-20T03:48:18;6.70;;;1.83;;
12122;SDS011;6125;59.628;17.852;2023-07-20T03:50:48;6.00;;;2.17;;
12122;SDS011;6125;59.628;17.852;2023-07-20T03:53:16;5.53;;;1.77;;
12122;SDS011;6125;59.628;17.852;2023-07-20T03:55:44;8.90;;;2.30;;
12122;SDS011;6125;59.628;17.852;2023-07-20T03:58:11;10.53;;;2.03;;
12122;SDS011;6125;59.628;17.852;2023-07-20T04:00:38;3.47;;;1.67;;
12122;SDS011;6125;59.628;17.852;2023-07-20T04:03:06;6.67;;;1.77;;
12122;SDS011;6125;59.628;17.852;2023-07-20T04:05:33;5.77;;;2.10;;
12122;SDS011;6125;59.628;17.852;2023-07-20T04:08:01;5.87;;;1.93;;
12122;SDS011;6125;59.628;17.852;2023-07-20T04:10:28;8.03;;;1.87;;
12122;SDS011;6125;59.628;17.852;2023-07-20T04:12:55;5.80;;;2.10;;
12122;SDS011;6125;59.628;17.852;2023-07-20T04:15:22;5.50;;;2.57;;
12122;SDS011;6125;59.628;17.852;2023-07-20T04:17:49;8.67;;;2.20;;
12122;SDS011;6125;59.628;17.852;2023-07-20T04:20:17;4.97;;;1.80;;
12122;SDS011;6125;59.628;17.852;2023-07-20T04:22:44;8.73;;;2.37;;
12122;SDS011;6125;59.628;17.852;2023-07-20T04:25:12;4.67;;;1.40;;
12122;SDS011;6125;59.628;17.852;2023-07-20T04:27:39;3.60;;;1.60;;
12122;SDS011;6125;59.628;17.852;2023-07-20T04:30:07;5.27;;;1.60;;
12122;SDS011;6125;59.628;17.852;2023-07-20T04:32:35;6.20;;;2.10;;
12122;SDS011;6125;59.628;17.852;2023-07-20T04:35:05;6.93;;;2.13;;
12122;SDS011;6125;59.628;17.852;2023-07-20T04:37:33;7.40;;;2.27;;
12122;SDS011;6125;59.628;17.852;2023-07-20T04:40:01;6.77;;;1.70;;
12122;SDS011;6125;59.628;17.852;2023-07-20T04:42:30;6.33;;;2.03;;
12122;SDS011;6125;59.628;17.852;2023-07-20T04:44:57;4.63;;;2.17;;
12122;SDS011;6125;59.628;17.852;2023-07-20T04:47:24;8.60;;;2.20;;
12122;SDS011;6125;59.628;17.852;2023-07-20T04:49:51;7.97;;;2.70;;
12122;SDS011;6125;59.628;17.852;2023-07-20T04:52:18;6.50;;;2.30;;
12122;SDS011;6125;59.628;17.852;2023-07-20T04:54:45;6.63;;;2.07;;
12122;SDS011;6125;59.628;17.852;2023-07-20T04:57:13;8.10;;;2.20;;
12122;SDS011;6125;59.628;17.852;2023-07-20T04:59:41;4.77;;;1.70;;
12122;SDS011;6125;59.628;17.852;2023-07-20T05:02:08;5.07;;;2.17;;
12122;SDS011;6125;59.628;17.852;2023-07-20T05:04:35;4.70;;;2.60;;
12122;SDS011;6125;59.628;17.852;2023-07-20T05:07:03;3.20;;;1.73;;
12122;SDS011;6125;59.628;17.852;2023-07-20T05:09:31;4.33;;;1.90;;
12122;SDS011;6125;59.628;17.852;2023-07-20T05:11:58;10.57;;;3.23;;
12122;SDS011;6125;59.628;17.852;2023-07-20T05:14:25;9.10;;;2.37;;
12122;SDS011;6125;59.628;17.852;2023-07-20T05:16:53;7.63;;;2.23;;
12122;SDS011;6125;59.628;17.852;2023-07-20T05:19:20;7.87;;;3.03;;
12122;SDS011;6125;59.628;17.852;2023-07-20T05:21:47;5.70;;;2.10;;
12122;SDS011;6125;59.628;17.852;2023-07-20T05:24:14;7.90;;;2.73;;
12122;SDS011;6125;59.628;17.852;2023-07-20T05:26:41;8.80;;;2.47;;
12122;SDS011;6125;59.628;17.852;2023-07-20T05:29:08;6.37;;;2.03;;
12122;SDS011;6125;59.628;17.852;2023-07-20T05:31:35;7.77;;;2.40;;
12122;SDS011;6125;59.628;17.852;2023-07-20T05:34:04;7.57;;;2.20;;
12122;SDS011;6125;59.628;17.852;2023-07-20T05:36:31;8.27;;;2.07;;
12122;SDS011;6125;59.628;17.852;2023-07-20T05:38:58;7.63;;;2.50;;
12122;SDS011;6125;59.628;17.852;2023-07-20T05:41:25;6.23;;;2.43;;
12122;SDS011;6125;59.628;17.852;2023-07-20T05:43:52;7.70;;;2.30;;
12122;SDS011;6125;59.628;17.852;2023-07-20T05:46:19;5.57;;;2.30;;
12122;SDS011;6125;59.628;17.852;2023-07-20T05:48:46;6.63;;;2.17;;
12122;SDS011;6125;59.628;17.852;2023-07-20T05:51:15;4.90;;;2.00;;
12122;SDS011;6125;59.628;17.852;2023-07-20T05:53:42;5.03;;;2.00;;
12122;SDS011;6125;59.628;17.852;2023-07-20T05:56:09;5.37;;;2.00;;
12122;SDS011;6125;59.628;17.852;2023-07-20T05:58:36;6.40;;;2.07;;
12122;SDS011;6125;59.628;17.852;2023-07-20T06:01:04;8.97;;;2.57;;
12122;SDS011;6125;59.628;17.852;2023-07-20T06:03:32;8.70;;;2.30;;
12122;SDS011;6125;59.628;17.852;2023-07-20T06:05:59;9.23;;;2.43;;
12122;SDS011;6125;59.628;17.852;2023-07-20T06:08:28;5.90;;;2.10;;
12122;SDS011;6125;59.628;17.852;2023-07-20T06:10:55;4.10;;;2.10;;
12122;SDS011;6125;59.628;17.852;2023-07-20T06:13:22;7.27;;;2.60;;
12122;SDS011;6125;59.628;17.852;2023-07-20T06:15:50;8.20;;;2.10;;
12122;SDS011;6125;59.628;17.852;2023-07-20T06:18:17;8.50;;;2.30;;
12122;SDS011;6125;59.628;17.852;2023-07-20T06:20:48;4.70;;;2.20;;
12122;SDS011;6125;59.628;17.852;2023-07-20T06:23:16;4.93;;;2.00;;
12122;SDS011;6125;59.628;17.852;2023-07-20T06:25:45;5.80;;;2.33;;
12122;SDS011;6125;59.628;17.852;2023-07-20T06:28:12;7.10;;;2.37;;
12122;SDS011;6125;59.628;17.852;2023-07-20T06:30:39;7.00;;;2.33;;
12122;SDS011;6125;59.628;17.852;2023-07-20T06:33:07;5.70;;;2.10;;
12122;SDS011;6125;59.628;17.852;2023-07-20T06:35:34;6.57;;;2.30;;
12122;SDS011;6125;59.628;17.852;2023-07-20T06:38:01;6.73;;;2.03;;
12122;SDS011;6125;59.628;17.852;2023-07-20T06:40:29;7.17;;;2.53;;
12122;SDS011;6125;59.628;17.852;2023-07-20T06:42:57;7.93;;;2.77;;
12122;SDS011;6125;59.628;17.852;2023-07-20T06:45:24;3.70;;;2.00;;
12122;SDS011;6125;59.628;17.852;2023-07-20T06:47:51;8.23;;;2.30;;
12122;SDS011;6125;59.628;17.852;2023-07-20T06:50:18;4.93;;;2.00;;
12122;SDS011;6125;59.628;17.852;2023-07-20T06:52:46;6.90;;;2.20;;
12122;SDS011;6125;59.628;17.852;2023-07-20T06:55:14;6.13;;;2.17;;
12122;SDS011;6125;59.628;17.852;2023-07-20T06:57:41;8.20;;;2.17;;
12122;SDS011;6125;59.628;17.852;2023-07-20T07:00:10;5.53;;;1.80;;
12122;SDS011;6125;59.628;17.852;2023-07-20T07:02:38;3.60;;;2.10;;
12122;SDS011;6125;59.628;17.852;2023-07-20T07:05:05;7.50;;;2.30;;
12122;SDS011;6125;59.628;17.852;2023-07-20T07:07:33;5.57;;;2.03;;
12122;SDS011;6125;59.628;17.852;2023-07-20T07:10:01;4.50;;;1.77;;
12122;SDS011;6125;59.628;17.852;2023-07-20T07:12:30;8.37;;;2.00;;
12122;SDS011;6125;59.628;17.852;2023-07-20T07:14:57;5.37;;;2.13;;
12122;SDS011;6125;59.628;17.852;2023-07-20T07:17:26;2.23;;;1.70;;
12122;SDS011;6125;59.628;17.852;2023-07-20T07:19:53;6.90;;;2.30;;
12122;SDS011;6125;59.628;17.852;2023-07-20T07:22:21;5.27;;;1.93;;
12122;SDS011;6125;59.628;17.852;2023-07-20T07:24:48;6.00;;;1.90;;
12122;SDS011;6125;59.628;17.852;2023-07-20T07:27:15;9.80;;;2.07;;
12122;SDS011;6125;59.628;17.852;2023-07-20T07:29:42;5.40;;;1.90;;
12122;SDS011;6125;59.628;17.852;2023-07-20T07:32:10;4.23;;;1.87;;
12122;SDS011;6125;59.628;17.852;2023-07-20T07:34:38;6.53;;;2.17;;
12122;SDS011;6125;59.628;17.852;2023-07-20T07:37:05;5.27;;;1.70;;
12122;SDS011;6125;59.628;17.852;2023-07-20T07:39:32;6.60;;;2.20;;
12122;SDS011;6125;59.628;17.852;2023-07-20T07:42:00;5.63;;;1.93;;
12122;SDS011;6125;59.628;17.852;2023-07-20T07:44:27;4.63;;;1.80;;
12122;SDS011;6125;59.628;17.852;2023-07-20T07:46:54;6.37;;;1.87;;
12122;SDS011;6125;59.628;17.852;2023-07-20T07:49:21;4.60;;;1.90;;
12122;SDS011;6125;59.628;17.852;2023-07-20T07:51:50;6.07;;;2.33;;
12122;SDS011;6125;59.628;17.852;2023-07-20T07:54:17;5.87;;;2.20;;
12122;SDS011;6125;59.628;17.852;2023-07-20T07:56:44;4.33;;;1.87;;
12122;SDS011;6125;59.628;17.852;2023-07-20T07:59:11;4.10;;;1.90;;
12122;SDS011;6125;59.628;17.852;2023-07-20T08:01:38;6.87;;;1.97;;
12122;SDS011;6125;59.628;17.852;2023-07-20T08:04:05;7.73;;;2.17;;
12122;SDS011;6125;59.628;17.852;2023-07-20T08:06:33;7.30;;;2.37;;
12122;SDS011;6125;59.628;17.852;2023-07-20T08:09:01;4.23;;;1.57;;
12122;SDS011;6125;59.628;17.852;2023-07-20T08:11:29;4.37;;;1.90;;
12122;SDS011;6125;59.628;17.852;2023-07-20T08:13:58;2.93;;;1.53;;
12122;SDS011;6125;59.628;17.852;2023-07-20T08:16:26;3.30;;;1.80;;
12122;SDS011;6125;59.628;17.852;2023-07-20T08:18:53;6.83;;;2.00;;
12122;SDS011;6125;59.628;17.852;2023-07-20T08:21:20;3.10;;;1.80;;
12122;SDS011;6125;59.628;17.852;2023-07-20T08:23:47;3.13;;;1.80;;
12122;SDS011;6125;59.628;17.852;2023-07-20T08:26:15;5.07;;;2.00;;
12122;SDS011;6125;59.628;17.852;2023-07-20T08:28:43;5.10;;;2.20;;
12122;SDS011;6125;59.628;17.852;2023-07-20T08:31:13;8.57;;;2.07;;
12122;SDS011;6125;59.628;17.852;2023-07-20T08:33:40;3.50;;;2.37;;
12122;SDS011;6125;59.628;17.852;2023-07-20T08:36:07;5.80;;;1.63;;
12122;SDS011;6125;59.628;17.852;2023-07-20T08:38:34;7.17;;;2.10;;
12122;SDS011;6125;59.628;17.852;2023-07-20T08:41:01;4.43;;;1.83;;
12122;SDS011;6125;59.628;17.852;2023-07-20T08:43:30;3.70;;;1.90;;
12122;SDS011;6125;59.628;17.852;2023-07-20T08:45:59;2.53;;;1.70;;
12122;SDS011;6125;59.628;17.852;2023-07-20T08:48:27;2.73;;;1.63;;
12122;SDS011;6125;59.628;17.852;2023-07-20T08:50:56;5.80;;;1.77;;
12122;SDS011;6125;59.628;17.852;2023-07-20T08:53:25;3.07;;;1.70;;
12122;SDS011;6125;59.628;17.852;2023-07-20T08:56:07;3.03;;;1.30;;
12122;SDS011;6125;59.628;17.852;2023-07-20T08:58:38;3.03;;;1.50;;
12122;SDS011;6125;59.628;17.852;2023-07-20T09:01:07;5.50;;;2.00;;
12122;SDS011;6125;59.628;17.852;2023-07-20T09:03:35;5.17;;;1.93;;
12122;SDS011;6125;59.628;17.852;2023-07-20T09:06:04;6.97;;;2.43;;
12122;SDS011;6125;59.628;17.852;2023-07-20T09:08:31;7.23;;;1.70;;
12122;SDS011;6125;59.628;17.852;2023-07-20T09:10:58;9.10;;;1.50;;
12122;SDS011;6125;59.628;17.852;2023-07-20T09:13:25;9.70;;;1.57;;
12122;SDS011;6125;59.628;17.852;2023-07-20T09:15:54;3.17;;;1.53;;
12122;SDS011;6125;59.628;17.852;2023-07-20T09:18:24;3.13;;;1.67;;
12122;SDS011;6125;59.628;17.852;2023-07-20T09:20:52;5.23;;;2.30;;
12122;SDS011;6125;59.628;17.852;2023-07-20T09:23:29;4.60;;;2.50;;
12122;SDS011;6125;59.628;17.852;2023-07-20T09:25:57;4.33;;;2.27;;
12122;SDS011;6125;59.628;17.852;2023-07-20T09:28:24;6.00;;;2.77;;
12122;SDS011;6125;59.628;17.852;2023-07-20T09:30:54;11.93;;;3.00;;
12122;SDS011;6125;59.628;17.852;2023-07-20T09:33:22;4.27;;;2.67;;
12122;SDS011;6125;59.628;17.852;2023-07-20T09:35:50;8.77;;;3.40;;
12122;SDS011;6125;59.628;17.852;2023-07-20T09:38:17;4.73;;;2.67;;
12122;SDS011;6125;59.628;17.852;2023-07-20T09:40:45;8.03;;;2.50;;
12122;SDS011;6125;59.628;17.852;2023-07-20T09:43:12;7.57;;;3.03;;
12122;SDS011;6125;59.628;17.852;2023-07-20T09:45:42;6.47;;;2.63;;
12122;SDS011;6125;59.628;17.852;2023-07-20T09:48:12;7.03;;;3.23;;
12122;SDS011;6125;59.628;17.852;2023-07-20T09:50:39;8.00;;;2.90;;
12122;SDS011;6125;59.628;17.852;2023-07-20T09:53:08;6.53;;;3.17;;
12122;SDS011;6125;59.628;17.852;2023-07-20T09:55:38;7.80;;;2.87;;
12122;SDS011;6125;59.628;17.852;2023-07-20T09:58:08;5.27;;;2.53;;
12122;SDS011;6125;59.628;17.852;2023-07-20T10:00:36;5.27;;;2.73;;
12122;SDS011;6125;59.628;17.852;2023-07-20T10:03:04;5.60;;;2.80;;
12122;SDS011;6125;59.628;17.852;2023-07-20T10:05:34;5.87;;;2.87;;
12122;SDS011;6125;59.628;17.852;2023-07-20T10:08:05;7.97;;;2.40;;
12122;SDS011;6125;59.628;17.852;2023-07-20T10:10:37;3.30;;;1.97;;
12122;SDS011;6125;59.628;17.852;2023-07-20T10:13:08;4.43;;;1.90;;
12122;SDS011;6125;59.628;17.852;2023-07-20T10:15:43;4.83;;;1.70;;
12122;SDS011;6125;59.628;17.852;2023-07-20T10:18:15;3.13;;;1.63;;
12122;SDS011;6125;59.628;17.852;2023-07-20T10:20:49;3.87;;;1.80;;
12122;SDS011;6125;59.628;17.852;2023-07-20T10:23:19;4.93;;;2.10;;
12122;SDS011;6125;59.628;17.852;2023-07-20T10:25:46;4.47;;;1.93;;
12122;SDS011;6125;59.628;17.852;2023-07-20T10:28:14;3.60;;;1.80;;
12122;SDS011;6125;59.628;17.852;2023-07-20T10:30:42;4.70;;;2.27;;
12122;SDS011;6125;59.628;17.852;2023-07-20T10:33:10;5.43;;;1.73;;
12122;SDS011;6125;59.628;17.852;2023-07-20T10:35:55;2.63;;;1.57;;
12122;SDS011;6125;59.628;17.852;2023-07-20T10:41:15;5.43;;;1.57;;
12122;SDS011;6125;59.628;17.852;2023-07-20T10:43:43;5.40;;;1.60;;
12122;SDS011;6125;59.628;17.852;2023-07-20T10:46:10;1.57;;;1.43;;
12122;SDS011;6125;59.628;17.852;2023-07-20T10:51:28;2.53;;;1.47;;
12122;SDS011;6125;59.628;17.852;2023-07-20T10:53:56;2.67;;;1.40;;
12122;SDS011;6125;59.628;17.852;2023-07-20T10:56:26;3.33;;;1.50;;
12122;SDS011;6125;59.628;17.852;2023-07-20T10:58:57;3.33;;;1.30;;
12122;SDS011;6125;59.628;17.852;2023-07-20T11:01:27;2.33;;;1.30;;
12122;SDS011;6125;59.628;17.852;2023-07-20T11:03:57;4.80;;;1.80;;
12122;SDS011;6125;59.628;17.852;2023-07-20T11:06:31;1.67;;;1.17;;
12122;SDS011;6125;59.628;17.852;2023-07-20T11:09:09;2.80;;;1.23;;
12122;SDS011;6125;59.628;17.852;2023-07-20T11:11:39;3.17;;;1.30;;
12122;SDS011;6125;59.628;17.852;2023-07-20T11:14:08;1.37;;;1.10;;
12122;SDS011;6125;59.628;17.852;2023-07-20T11:16:39;2.13;;;1.40;;
12122;SDS011;6125;59.628;17.852;2023-07-20T11:19:15;1.00;;;0.90;;
12122;SDS011;6125;59.628;17.852;2023-07-20T11:21:45;1.73;;;1.20;;
12122;SDS011;6125;59.628;17.852;2023-07-20T11:24:13;1.77;;;1.30;;
12122;SDS011;6125;59.628;17.852;2023-07-20T11:26:41;2.37;;;0.87;;
12122;SDS011;6125;59.628;17.852;2023-07-20T11:29:12;1.50;;;1.00;;
12122;SDS011;6125;59.628;17.852;2023-07-20T11:31:40;1.00;;;0.90;;
12122;SDS011;6125;59.628;17.852;2023-07-20T11:34:09;4.20;;;1.00;;
12122;SDS011;6125;59.628;17.852;2023-07-20T11:36:38;2.30;;;1.20;;
12122;SDS011;6125;59.628;17.852;2023-07-20T11:39:09;1.67;;;1.00;;
12122;SDS011;6125;59.628;17.852;2023-07-20T11:41:36;1.73;;;1.30;;
12122;SDS011;6125;59.628;17.852;2023-07-20T11:44:05;2.13;;;1.00;;
12122;SDS011;6125;59.628;17.852;2023-07-20T11:46:32;2.07;;;0.93;;
12122;SDS011;6125;59.628;17.852;2023-07-20T11:49:00;2.87;;;1.60;;
12122;SDS011;6125;59.628;17.852;2023-07-20T11:51:27;1.60;;;1.07;;
12122;SDS011;6125;59.628;17.852;2023-07-20T11:53:55;1.20;;;1.00;;
12122;SDS011;6125;59.628;17.852;2023-07-20T11:56:24;2.20;;;1.10;;
12122;SDS011;6125;59.628;17.852;2023-07-20T11:58:54;2.60;;;1.20;;
12122;SDS011;6125;59.628;17.852;2023-07-20T12:01:24;1.57;;;1.07;;
12122;SDS011;6125;59.628;17.852;2023-07-20T12:03:54;0.93;;;0.80;;
12122;SDS011;6125;59.628;17.852;2023-07-20T12:06:22;2.77;;;1.07;;
12122;SDS011;6125;59.628;17.852;2023-07-20T12:08:50;0.93;;;0.80;;
12122;SDS011;6125;59.628;17.852;2023-07-20T12:14:06;0.90;;;0.70;;
12122;SDS011;6125;59.628;17.852;2023-07-20T12:16:34;1.83;;;0.90;;
12122;SDS011;6125;59.628;17.852;2023-07-20T12:19:04;0.60;;;0.60;;
12122;SDS011;6125;59.628;17.852;2023-07-20T12:21:33;1.40;;;0.80;;
12122;SDS011;6125;59.628;17.852;2023-07-20T12:24:02;1.73;;;1.00;;
12122;SDS011;6125;59.628;17.852;2023-07-20T12:26:30;1.13;;;1.00;;
12122;SDS011;6125;59.628;17.852;2023-07-20T12:28:59;1.13;;;0.80;;
12122;SDS011;6125;59.628;17.852;2023-07-20T12:31:28;1.20;;;1.00;;
12122;SDS011;6125;59.628;17.852;2023-07-20T12:33:56;0.97;;;0.90;;
12122;SDS011;6125;59.628;17.852;2023-07-20T12:36:24;1.17;;;0.90;;
12122;SDS011;6125;59.628;17.852;2023-07-20T12:38:51;1.83;;;1.10;;
12122;SDS011;6125;59.628;17.852;2023-07-20T12:41:18;1.10;;;0.87;;
12122;SDS011;6125;59.628;17.852;2023-07-20T12:43:45;1.87;;;1.07;;
12122;SDS011;6125;59.628;17.852;2023-07-20T12:46:14;2.63;;;0.90;;
12122;SDS011;6125;59.628;17.852;2023-07-20T12:48:41;1.93;;;1.10;;
12122;SDS011;6125;59.628;17.852;2023-07-20T12:51:08;0.93;;;0.93;;
12122;SDS011;6125;59.628;17.852;2023-07-20T12:53:37;2.30;;;1.10;;
12122;SDS011;6125;59.628;17.852;2023-07-20T12:56:04;1.57;;;1.10;;
12122;SDS011;6125;59.628;17.852;2023-07-20T12:58:32;1.30;;;1.03;;
12122;SDS011;6125;59.628;17.852;2023-07-20T13:00:59;2.93;;;1.00;;
12122;SDS011;6125;59.628;17.852;2023-07-20T13:03:28;1.80;;;0.93;;
12122;SDS011;6125;59.628;17.852;2023-07-20T13:06:03;2.10;;;1.30;;
12122;SDS011;6125;59.628;17.852;2023-07-20T13:08:31;0.87;;;0.87;;
12122;SDS011;6125;59.628;17.852;2023-07-20T13:10:58;2.83;;;1.17;;
12122;SDS011;6125;59.628;17.852;2023-07-20T13:13:25;3.80;;;1.03;;
12122;SDS011;6125;59.628;17.852;2023-07-20T13:15:53;1.43;;;1.00;;
12122;SDS011;6125;59.628;17.852;2023-07-20T13:18:20;2.07;;;1.27;;
12122;SDS011;6125;59.628;17.852;2023-07-20T13:20:49;1.60;;;1.03;;
12122;SDS011;6125;59.628;17.852;2023-07-20T13:23:16;2.73;;;1.13;;
12122;SDS011;6125;59.628;17.852;2023-07-20T13:25:43;1.50;;;0.90;;
12122;SDS011;6125;59.628;17.852;2023-07-20T13:28:10;2.17;;;0.90;;
12122;SDS011;6125;59.628;17.852;2023-07-20T13:30:37;5.80;;;1.20;;
12122;SDS011;6125;59.628;17.852;2023-07-20T13:33:04;1.10;;;0.97;;
12122;SDS011;6125;59.628;17.852;2023-07-20T13:35:31;3.10;;;1.07;;
12122;SDS011;6125;59.628;17.852;2023-07-20T13:38:00;1.57;;;1.20;;
12122;SDS011;6125;59.628;17.852;2023-07-20T13:40:27;1.83;;;0.97;;
12122;SDS011;6125;59.628;17.852;2023-07-20T13:42:54;1.27;;;1.00;;
12122;SDS011;6125;59.628;17.852;2023-07-20T13:45:21;2.87;;;1.10;;
12122;SDS011;6125;59.628;17.852;2023-07-20T13:47:48;2.60;;;1.20;;
12122;SDS011;6125;59.628;17.852;2023-07-20T13:50:15;2.90;;;1.13;;
12122;SDS011;6125;59.628;17.852;2023-07-20T13:52:42;1.30;;;1.07;;
12122;SDS011;6125;59.628;17.852;2023-07-20T13:55:11;1.27;;;1.13;;
12122;SDS011;6125;59.628;17.852;2023-07-20T13:57:38;1.53;;;1.13;;
12122;SDS011;6125;59.628;17.852;2023-07-20T14:00:05;1.80;;;1.27;;
12122;SDS011;6125;59.628;17.852;2023-07-20T14:02:36;1.80;;;1.10;;
12122;SDS011;6125;59.628;17.852;2023-07-20T14:05:03;2.60;;;1.00;;
12122;SDS011;6125;59.628;17.852;2023-07-20T14:07:31;1.80;;;1.30;;
12122;SDS011;6125;59.628;17.852;2023-07-20T14:09:58;2.57;;;1.20;;
12122;SDS011;6125;59.628;17.852;2023-07-20T14:12:26;2.47;;;1.30;;
12122;SDS011;6125;59.628;17.852;2023-07-20T14:14:54;1.70;;;1.00;;
12122;SDS011;6125;59.628;17.852;2023-07-20T14:17:21;2.80;;;1.20;;
12122;SDS011;6125;59.628;17.852;2023-07-20T14:19:48;2.90;;;1.40;;
12122;SDS011;6125;59.628;17.852;2023-07-20T14:22:16;1.30;;;1.00;;
12122;SDS011;6125;59.628;17.852;2023-07-20T14:24:43;2.73;;;1.20;;
12122;SDS011;6125;59.628;17.852;2023-07-20T14:27:10;2.07;;;1.10;;
12122;SDS011;6125;59.628;17.852;2023-07-20T14:29:38;1.43;;;1.27;;
12122;SDS011;6125;59.628;17.852;2023-07-20T14:32:06;2.03;;;1.17;;
12122;SDS011;6125;59.628;17.852;2023-07-20T14:34:33;1.80;;;1.07;;
12122;SDS011;6125;59.628;17.852;2023-07-20T14:37:00;2.63;;;1.10;;
12122;SDS011;6125;59.628;17.852;2023-07-20T14:39:29;1.77;;;1.30;;
12122;SDS011;6125;59.628;17.852;2023-07-20T14:41:56;2.27;;;1.20;;
12122;SDS011;6125;59.628;17.852;2023-07-20T14:44:24;3.33;;;1.27;;
12122;SDS011;6125;59.628;17.852;2023-07-20T14:46:52;2.27;;;1.30;;
12122;SDS011;6125;59.628;17.852;2023-07-20T14:49:20;1.70;;;1.17;;
12122;SDS011;6125;59.628;17.852;2023-07-20T14:51:48;2.60;;;1.07;;
12122;SDS011;6125;59.628;17.852;2023-07-20T14:54:15;1.37;;;1.10;;
12122;SDS011;6125;59.628;17.852;2023-07-20T14:56:48;1.20;;;1.10;;
12122;SDS011;6125;59.628;17.852;2023-07-20T14:59:17;1.67;;;1.00;;
12122;SDS011;6125;59.628;17.852;2023-07-20T15:01:45;2.00;;;1.07;;
12122;SDS011;6125;59.628;17.852;2023-07-20T15:04:13;1.30;;;0.90;;
12122;SDS011;6125;59.628;17.852;2023-07-20T15:06:41;2.10;;;1.20;;
12122;SDS011;6125;59.628;17.852;2023-07-20T15:09:08;0.70;;;0.70;;